Time;durP1;ratioP1;P1;durP2;ratioP2;P2;SDS_P1;SDS_P2;PMS_P1;PMS_P2;Temp;Humidity;BMP_temperature;BMP_pressure;BME280_temperature;BME280_humidity;BME280_pressure;Samples;Min_cycle;Max_cycle;Signal;HPM_P1;HPM_P2
2023/06/10 00:01:09;;;;;;;;;;;;;;;29.72;73.30;100575.22;5113139;27;65508;-44
2023/06/10 00:03:41;;;;;;;16.40;9.70;;;;;;;29.74;72.40;100546.94;5108836;27;69721;-45
2023/06/10 00:06:12;;;;;;;10.68;9.63;;;;;;;29.97;72.61;100588.75;5106817;27;66270;-45
2023/06/10 00:08:47;;;;;;;9.20;8.40;;;;;;;29.90;72.91;100579.91;5115815;27;70061;-45
2023/06/10 00:11:18;;;;;;;14.07;8.27;;;;;;;30.05;72.90;100610.13;5107051;27;66615;-45
2023/06/10 00:13:49;;;;;;;9.23;8.40;;;;;;;30.06;72.62;100603.66;5105125;27;70947;-45
2023/06/10 00:16:21;;;;;;;8.98;8.10;;;;;;;30.04;72.77;100590.38;5106509;27;66511;-45
2023/06/10 00:18:52;;;;;;;11.85;8.15;;;;;;;30.10;73.39;100604.06;5103838;27;69451;-46
2023/06/10 00:21:24;;;;;;;8.57;7.75;;;;;;;30.13;73.01;100595.50;5106211;27;66432;-45
2023/06/10 00:23:56;;;;;;;8.95;7.50;;;;;;;30.16;72.83;100598.56;5109408;27;69295;-45
2023/06/10 00:26:27;;;;;;;;;;;;;;;29.99;73.87;100602.91;5110120;27;66177;-45
2023/06/10 00:28:57;;;;;;;10.65;7.40;;;;;;;30.19;72.72;100605.41;5108834;27;69011;-44
2023/06/10 00:31:30;;;;;;;11.82;8.40;;;;;;;30.19;73.32;100608.94;5103919;27;66352;-47
2023/06/10 00:34:01;;;;;;;;;;;;;;;30.08;73.37;100616.97;5107022;27;69780;-45
2023/06/10 00:36:33;;;;;;;9.23;7.97;;;;;;;30.25;73.22;100624.31;5103259;27;66787;-45
2023/06/10 00:39:04;;;;;;;7.88;7.10;;;;;;;30.33;72.80;100630.50;5105867;27;69806;-45
2023/06/10 00:41:38;;;;;;;8.98;7.97;;;;;;;30.34;73.60;100637.56;5119497;27;66578;-43
2023/06/10 00:44:09;;;;;;;14.15;8.05;;;;;;;30.26;73.23;100619.75;5108069;27;69178;-44
2023/06/10 00:46:41;;;;;;;15.50;7.57;;;;;;;30.41;72.39;100638.34;5106895;27;65268;-44
2023/06/10 00:49:13;;;;;;;9.40;7.20;;;;;;;30.46;71.11;100643.91;5114048;27;69959;-44
2023/06/10 00:51:45;;;;;;;6.65;6.05;;;;;;;30.46;70.69;100635.81;5105497;27;65642;-42
2023/06/10 00:54:16;;;;;;;;;;;;;;;30.19;71.41;100641.41;5108718;27;69335;-43
2023/06/10 00:56:49;;;;;;;5.93;5.53;;;;;;;30.34;70.15;100635.72;5121360;27;66073;-43
2023/06/10 00:59:21;;;;;;;5.95;5.47;;;;;;;30.48;70.53;100655.34;5104735;27;70658;-43
2023/06/10 01:01:53;;;;;;;6.82;5.75;;;;;;;30.50;70.18;100658.66;5111163;27;66521;-45
2023/06/10 01:04:24;;;;;;;;;;;;;;;30.23;71.20;100656.19;5110157;27;70054;-45
2023/06/10 01:07:02;;;;;;;8.90;5.55;;;;;;;30.49;69.97;100651.59;5104366;27;66454;-45
2023/06/10 01:09:45;;;;;;;6.25;5.70;;;;;;;30.53;70.12;100655.50;5105642;27;69985;-45
2023/06/10 01:12:30;;;;;;;18.92;8.32;;;;;;;29.56;72.74;100512.53;5109198;27;66299;-44
2023/06/10 01:15:02;;;;;;;40.30;7.78;;;;;;;30.57;73.79;100664.84;5103492;27;69628;-44
2023/06/10 01:17:33;;;;;;;;;;;;;;;30.36;74.63;100660.66;5116375;27;65833;-44
2023/06/10 01:20:04;;;;;;;14.48;7.72;;;;;;;30.55;74.47;100661.53;5105137;27;70184;-45
2023/06/10 01:22:36;;;;;;;;;;;;;;;30.39;74.93;100662.09;5118500;27;66341;-42
2023/06/10 01:25:08;;;;;;;12.20;6.77;;;;;;;30.59;74.66;100667.31;5108680;27;70280;-44
2023/06/10 01:27:40;;;;;;;;;;;;;;;30.44;74.99;100663.06;5115223;27;66090;-43
2023/06/10 01:30:23;;;;;;;8.13;6.43;;;;;;;30.52;74.58;100661.97;5105119;27;70534;-44
2023/06/10 01:32:55;;;;;;;8.43;6.35;;;;;;;30.67;74.37;100670.56;5105559;27;66438;-44
2023/06/10 01:35:27;;;;;;;9.90;6.22;;;;;;;30.69;74.86;100667.63;5110097;27;70246;-43
2023/06/10 01:38:01;;;;;;;11.93;6.05;;;;;;;29.32;74.04;100454.72;5085433;27;66289;-43
2023/06/10 01:40:34;;;;;;;8.65;5.82;;;;;;;30.62;74.25;100666.84;5111057;27;70186;-44
2023/06/10 01:43:06;;;;;;;8.63;6.15;;;;;;;30.62;74.35;100661.44;5105392;27;65517;-43
2023/06/10 01:45:37;;;;;;;9.37;5.97;;;;;;;30.66;73.44;100674.31;5105642;27;70800;-44
2023/06/10 01:48:09;;;;;;;6.80;5.93;;;;;;;30.34;73.30;100615.91;5108166;27;66801;-44
2023/06/10 01:50:41;;;;;;;6.33;5.53;;;;;;;30.25;73.49;100602.66;5082152;27;69542;-44
2023/06/10 01:53:12;;;;;;;12.52;6.55;;;;;;;30.54;73.23;100643.63;5113504;27;65386;-43
2023/06/10 01:55:44;;;;;;;7.93;6.47;;;;;;;30.72;73.76;100662.59;5106073;27;70027;-44
2023/06/10 01:58:16;;;;;;;11.55;5.95;;;;;;;30.64;73.58;100653.94;5103969;27;66819;-44
2023/06/10 02:00:47;;;;;;;15.03;6.00;;;;;;;30.68;72.97;100658.69;5104157;27;70527;-43
2023/06/10 02:03:18;;;;;;;;;;;;;;;30.58;73.94;100676.50;5105200;27;66181;-43
2023/06/10 02:05:50;;;;;;;4.22;3.92;;;;;;;30.63;71.78;100630.63;5107967;27;70578;-43
2023/06/10 02:08:21;;;;;;;;;;;;;;;30.63;73.42;100674.75;5102072;27;64819;-44
2023/06/10 02:10:53;;;;;;;4.60;4.30;;;;;;;30.77;71.75;100642.16;5100630;27;69792;-44
2023/06/10 02:13:25;;;;;;;4.57;4.18;;;;;;;30.86;71.43;100657.06;5090096;27;65899;-43
2023/06/10 02:15:56;;;;;;;4.30;4.00;;;;;;;30.98;70.90;100666.09;5115106;27;70347;-43
2023/06/10 02:18:30;;;;;;;6.65;4.10;;;;;;;30.50;70.77;100578.28;5108545;27;66851;-43
2023/06/10 02:21:02;;;;;;;4.22;3.83;;;;;;;30.92;70.75;100637.19;5109397;27;69783;-44
2023/06/10 02:23:33;;;;;;;3.83;3.53;;;;;;;31.03;70.46;100651.88;5109715;27;65276;-45
2023/06/10 02:26:06;;;;;;;4.47;4.18;;;;;;;31.08;70.24;100658.25;5075817;27;69145;-43
2023/06/10 02:28:37;;;;;;;4.10;3.80;;;;;;;31.12;70.34;100645.94;5112097;27;65201;-45
2023/06/10 02:31:09;;;;;;;3.60;3.38;;;;;;;31.23;69.76;100662.44;5104449;27;70100;-44
2023/06/10 02:33:40;;;;;;;4.07;3.78;;;;;;;31.14;69.58;100651.91;5104243;27;66653;-44
2023/06/10 02:36:13;;;;;;;3.55;3.25;;;;;;;31.29;69.80;100665.09;5119721;27;69892;-43
2023/06/10 02:38:45;;;;;;;3.35;3.15;;;;;;;31.33;69.30;100657.31;5111564;27;65778;-44
2023/06/10 02:41:16;;;;;;;4.10;3.67;;;;;;;31.35;69.01;100671.47;5115172;27;70068;-44
2023/06/10 02:43:48;;;;;;;4.50;4.15;;;;;;;31.28;68.87;100652.59;5117422;27;65720;-43
2023/06/10 02:46:20;;;;;;;3.70;3.40;;;;;;;31.42;69.26;100672.22;5101784;27;69293;-43
2023/06/10 02:48:51;;;;;;;3.92;3.42;;;;;;;31.29;68.65;100654.25;5105583;27;66686;-43
2023/06/10 02:51:25;;;;;;;3.03;2.83;;;;;;;31.19;68.70;100628.75;5105717;27;69683;-42
2023/06/10 02:54:02;;;;;;;4.15;3.75;;;;;;;31.42;68.08;100666.81;5106354;27;66206;-43
2023/06/10 02:56:33;;;;;;;3.08;2.88;;;;;;;31.52;68.27;100667.09;5103814;27;70397;-43
2023/06/10 02:59:08;;;;;;;4.72;3.75;;;;;;;31.48;68.28;100659.66;5105496;27;65396;-43
2023/06/10 03:01:39;;;;;;;3.58;3.38;;;;;;;31.54;68.37;100664.19;5098697;27;69419;-42
2023/06/10 03:04:14;;;;;;;6.40;3.17;;;;;;;31.62;68.40;100671.97;5112140;27;66175;-43
2023/06/10 03:06:54;;;;;;;2.63;2.42;;;;;;;31.59;68.15;100662.44;5106608;27;70655;-43
2023/06/10 03:09:31;;;;;;;4.47;3.13;;;;;;;31.67;67.61;100661.25;5113144;27;66194;-43
2023/06/10 03:12:05;;;;;;;3.10;2.90;;;;;;;31.57;67.75;100642.03;5111282;27;70024;-43
2023/06/10 03:14:42;;;;;;;3.15;2.92;;;;;;;31.74;67.91;100658.47;5103780;27;66482;-44
2023/06/10 03:17:13;;;;;;;3.10;2.90;;;;;;;31.73;67.47;100651.38;5091603;27;70055;-44
2023/06/10 03:19:46;;;;;;;2.92;2.72;;;;;;;31.77;67.23;100658.00;5098905;27;66781;-47
2023/06/10 03:22:18;;;;;;;3.10;2.90;;;;;;;31.77;67.52;100652.56;5104721;27;69827;-43
2023/06/10 03:25:03;;;;;;;4.00;3.60;;;;;;;31.79;67.09;100653.19;5097765;27;65903;-44
2023/06/10 03:27:36;;;;;;;5.28;3.03;;;;;;;31.80;67.50;100646.69;5105171;27;69076;-42
2023/06/10 03:30:10;;;;;;;2.90;2.70;;;;;;;31.82;66.96;100650.00;5113934;27;65762;-44
2023/06/10 03:32:43;;;;;;;2.85;2.65;;;;;;;31.82;67.43;100650.00;5100517;27;70369;-43
2023/06/10 03:35:17;;;;;;;2.83;2.50;;;;;;;31.82;66.98;100639.16;5095506;27;65259;-44
2023/06/10 03:37:49;;;;;;;2.88;2.67;;;;;;;31.80;67.07;100635.84;5114869;27;70323;-43
2023/06/10 03:40:20;;;;;;;;;;;;;;;31.56;67.33;100656.63;5106883;27;66754;-44
2023/06/10 03:42:52;;;;;;;5.47;3.28;;;;;;;31.59;67.64;100629.88;5104109;27;69739;-43
2023/06/10 03:45:24;;;;;;;4.85;3.88;;;;;;;31.75;67.59;100665.53;5109444;27;66227;-44
2023/06/10 03:47:57;;;;;;;13.63;3.63;;;;;;;31.66;67.80;100634.38;5106001;27;70592;-42
2023/06/10 03:50:36;;;;;;;6.95;3.47;;;;;;;31.73;68.19;100645.94;5089706;27;65450;-43
2023/06/10 03:53:07;;;;;;;4.72;3.28;;;;;;;31.69;68.12;100640.16;5118629;27;69766;-44
2023/06/10 03:55:41;;;;;;;5.95;3.10;;;;;;;31.72;68.08;100649.72;5101070;27;64982;-43
2023/06/10 03:58:14;;;;;;;5.00;2.85;;;;;;;31.70;68.49;100630.13;5109785;27;69078;-43
2023/06/10 04:00:46;;;;;;;4.78;2.58;;;;;;;31.71;68.41;100615.53;5127481;27;65663;-43
2023/06/10 04:03:17;;;;;;;5.40;3.20;;;;;;;31.75;68.58;100622.94;5103731;27;69818;-44
2023/06/10 04:05:53;;;;;;;6.07;3.47;;;;;;;31.79;67.83;100617.91;5093491;27;66519;-44
2023/06/10 04:08:27;;;;;;;4.05;2.90;;;;;;;31.85;67.87;100622.41;5104156;27;69743;-42
2023/06/10 04:11:02;;;;;;;7.78;3.00;;;;;;;31.85;67.30;100608.00;5111275;27;66273;-43
2023/06/10 04:13:33;;;;;;;13.38;3.30;;;;;;;31.56;67.25;100567.97;5112352;27;69762;-44
2023/06/10 04:16:05;;;;;;;4.93;3.00;;;;;;;31.60;67.42;100561.03;5105028;27;65827;-44
2023/06/10 04:18:36;;;;;;;3.80;2.85;;;;;;;31.66;67.24;100574.72;5115119;27;69953;-43
2023/06/10 04:21:09;;;;;;;6.22;2.28;;;;;;;31.98;66.68;100599.66;5111122;27;66277;-46
2023/06/10 04:23:41;;;;;;;3.55;2.22;;;;;;;32.00;67.14;100582.09;5113858;27;70119;-44
2023/06/10 04:26:13;;;;;;;2.75;1.85;;;;;;;32.10;66.88;100581.53;5105746;27;67255;-43
2023/06/10 04:28:44;;;;;;;2.33;2.05;;;;;;;32.10;66.84;100569.84;5114265;27;70061;-43
2023/06/10 04:31:17;;;;;;;2.05;1.85;;;;;;;32.20;66.54;100576.31;5114247;27;66007;-44
2023/06/10 04:33:49;;;;;;;2.35;1.85;;;;;;;32.06;66.39;100536.91;5125275;27;70062;-44
2023/06/10 04:36:21;;;;;;;2.72;1.95;;;;;;;32.28;66.23;100572.41;5109849;27;66374;-44
2023/06/10 04:38:53;;;;;;;2.90;1.90;;;;;;;32.22;66.26;100568.78;5113126;27;70020;-44
2023/06/10 04:41:25;;;;;;;1.88;1.67;;;;;;;32.33;66.00;100602.41;5107574;27;66310;-44
2023/06/10 04:43:57;;;;;;;2.78;1.73;;;;;;;32.34;65.86;100604.03;5123172;27;69786;-43
2023/06/10 04:46:30;;;;;;;;;;;;;;;32.08;66.57;100607.25;5109664;27;66361;-44
2023/06/10 04:49:01;;;;;;;6.43;2.40;;;;;;;32.20;64.77;100608.06;5118684;27;69866;-44
2023/06/10 04:51:34;;;;;;;2.55;2.35;;;;;;;31.98;62.14;100578.81;5109365;27;66381;-42
2023/06/10 04:54:05;;;;;;;4.18;2.25;;;;;;;31.81;60.08;100580.50;5105000;27;69887;-43
2023/06/10 04:56:36;;;;;;;2.67;2.13;;;;;;;31.65;58.56;100573.06;5110180;27;66056;-43
2023/06/10 04:59:08;;;;;;;7.57;2.83;;;;;;;31.34;58.12;100518.03;5106349;27;69678;-45
2023/06/10 05:01:39;;;;;;;4.60;2.47;;;;;;;31.50;58.60;100551.81;5111048;27;65591;-46
2023/06/10 05:04:11;;;;;;;5.30;2.20;;;;;;;31.34;57.66;100534.28;5113840;27;70289;-44
2023/06/10 05:06:43;;;;;;;8.20;2.13;;;;;;;31.39;57.65;100545.31;5114480;27;66432;-46
2023/06/10 05:09:14;;;;;;;6.65;2.15;;;;;;;31.34;56.98;100534.28;5109032;27;70211;-44
2023/06/10 05:11:46;;;;;;;2.67;2.03;;;;;;;30.99;55.74;100496.28;5105835;27;66308;-45
2023/06/10 05:14:19;;;;;;;3.28;2.33;;;;;;;31.14;54.60;100524.56;5109923;27;70345;-47
2023/06/10 05:16:50;;;;;;;5.65;2.17;;;;;;;31.14;54.55;100519.16;5114138;27;66416;-46
2023/06/10 05:19:21;;;;;;;3.85;2.88;;;;;;;31.05;53.68;100509.72;5114083;27;69977;-46
2023/06/10 05:21:53;;;;;;;2.22;2.03;;;;;;;30.99;52.72;100505.22;5112410;27;65225;-43
2023/06/10 05:24:24;;;;;;;5.65;2.53;;;;;;;30.81;52.64;100486.31;5116556;27;70250;-44
2023/06/10 05:26:56;;;;;;;3.00;2.33;;;;;;;30.69;53.13;100473.50;5107838;27;66365;-43
2023/06/10 05:29:27;;;;;;;6.78;3.00;;;;;;;30.93;53.09;100500.75;5113926;27;69605;-44
2023/06/10 05:32:02;;;;;;;16.42;2.58;;;;;;;30.88;51.74;100489.75;5111861;27;66467;-43
2023/06/10 05:34:34;;;;;;;9.98;2.53;;;;;;;30.81;51.15;100486.31;5108506;27;70576;-42
2023/06/10 05:37:05;;;;;;;12.83;2.57;;;;;;;30.82;52.46;100477.16;5113015;27;66465;-43
2023/06/10 05:39:39;;;;;;;;;;;;;;;30.47;50.16;100483.16;5110679;27;69886;-44
2023/06/10 05:42:11;;;;;;;17.73;2.50;;;;;;;30.68;50.80;100482.69;5109622;27;65887;-43
2023/06/10 05:44:42;;;;;;;12.60;2.58;;;;;;;30.70;50.31;100487.88;5107164;27;69755;-44
2023/06/10 05:47:13;;;;;;;7.87;2.60;;;;;;;30.65;50.54;100494.00;5118610;27;65953;-44
2023/06/10 05:49:48;;;;;;;9.07;2.50;;;;;;;30.66;50.31;100494.81;5090940;27;69849;-43
2023/06/10 05:52:19;;;;;;;3.22;2.38;;;;;;;30.63;49.89;100506.91;5112581;27;65827;-43
2023/06/10 05:54:51;;;;;;;3.10;2.28;;;;;;;30.54;49.00;100513.72;5101418;27;70406;-44
2023/06/10 05:57:22;;;;;;;6.10;2.47;;;;;;;30.52;48.83;100526.63;5107300;27;65971;-42
2023/06/10 05:59:54;;;;;;;5.35;2.58;;;;;;;30.52;48.71;100514.97;5120642;27;70399;-42
2023/06/10 06:02:25;;;;;;;2.40;2.20;;;;;;;30.34;48.04;100491.44;5110490;27;66613;-45
2023/06/10 06:04:57;;;;;;;8.18;2.53;;;;;;;30.43;48.16;100490.09;5103044;27;70540;-44
2023/06/10 06:07:29;;;;;;;4.57;1.80;;;;;;;30.38;47.00;100482.66;5109430;27;65497;-44
2023/06/10 06:10:00;;;;;;;3.42;1.73;;;;;;;30.15;47.04;100452.75;5102843;27;70437;-44
2023/06/10 06:12:31;;;;;;;2.75;1.98;;;;;;;30.35;47.45;100477.69;5109051;27;66741;-44
2023/06/10 06:15:03;;;;;;;2.88;2.00;;;;;;;30.23;46.75;100469.53;5124086;27;70083;-43
2023/06/10 06:17:35;;;;;;;2.72;1.90;;;;;;;30.24;46.43;100468.47;5118147;27;66595;-42
2023/06/10 06:20:07;;;;;;;5.63;1.85;;;;;;;30.25;47.12;100451.16;5110041;27;70839;-42
2023/06/10 06:22:38;;;;;;;;;;;;;;;29.96;46.53;100441.06;5110583;27;65967;-43
2023/06/10 06:25:09;;;;;;;4.82;2.05;;;;;;;30.17;45.86;100435.22;5112603;27;70311;-43
2023/06/10 06:27:42;;;;;;;6.30;1.58;;;;;;;30.04;46.32;100408.34;5111546;27;66492;-44
2023/06/10 06:30:13;;;;;;;4.47;2.05;;;;;;;30.10;45.69;100409.31;5105433;27;70419;-43
2023/06/10 06:32:45;;;;;;;3.10;2.05;;;;;;;30.10;45.58;100404.72;5120035;27;66163;-44
2023/06/10 06:35:17;;;;;;;2.75;2.08;;;;;;;29.78;45.21;100369.72;5109277;27;68852;-43
2023/06/10 06:37:49;;;;;;;2.72;2.53;;;;;;;29.77;45.25;100356.44;5119865;27;66722;-48
2023/06/10 06:40:25;;;;;;;3.38;1.95;;;;;;;29.98;44.80;100401.13;5108040;27;70679;-43
2023/06/10 06:42:57;;;;;;;2.38;2.17;;;;;;;30.01;44.88;100400.66;5103472;27;67616;-44
2023/06/10 06:45:51;;;;;;;2.67;2.13;;;;;;;29.96;44.46;100403.22;5083845;27;70135;-45
2023/06/10 06:48:22;;;;;;;2.57;2.37;;;;;;;29.97;45.12;100394.03;5112183;27;66397;-44
2023/06/10 06:50:56;;;;;;;2.58;2.33;;;;;;;29.95;45.63;100385.31;5107260;27;70139;-43
2023/06/10 06:53:27;;;;;;;3.60;2.28;;;;;;;29.75;44.49;100347.69;5106722;27;65479;-43
2023/06/10 06:56:03;;;;;;;5.60;2.10;;;;;;;29.82;44.41;100354.69;5115613;27;70686;-44
2023/06/10 06:58:34;;;;;;;2.55;2.33;;;;;;;29.90;44.59;100353.56;5101294;27;66135;-45
2023/06/10 07:01:06;;;;;;;3.22;2.50;;;;;;;29.87;44.84;100355.91;5102279;27;70672;-43
2023/06/10 07:03:38;;;;;;;6.32;2.60;;;;;;;29.86;45.26;100346.13;5104671;27;65783;-44
2023/06/10 07:06:09;;;;;;;2.57;2.20;;;;;;;29.94;45.27;100351.22;5101851;27;70644;-44
2023/06/10 07:08:40;;;;;;;3.20;2.88;;;;;;;29.93;45.22;100355.00;5108054;27;65443;-43
2023/06/10 07:11:12;;;;;;;2.97;2.60;;;;;;;29.93;44.50;100358.53;5110200;27;69598;-43
2023/06/10 07:13:43;;;;;;;2.17;2.08;;;;;;;29.86;44.69;100336.13;5115530;27;66870;-44
2023/06/10 07:16:14;;;;;;;3.55;2.15;;;;;;;29.84;44.37;100333.69;5107892;27;70389;-43
2023/06/10 07:18:46;;;;;;;5.18;2.78;;;;;;;29.82;44.93;100329.53;5104701;27;65919;-44
2023/06/10 07:21:18;;;;;;;2.75;2.55;;;;;;;29.99;46.38;100332.44;5111992;27;69676;-43
2023/06/10 07:23:53;;;;;;;3.35;2.40;;;;;;;30.03;47.15;100309.28;5112122;27;66299;-45
2023/06/10 07:26:25;;;;;;;3.13;2.80;;;;;;;30.37;47.87;100315.09;5113393;27;69988;-45
2023/06/10 07:28:56;;;;;;;;;;;;;;;30.35;48.96;100323.47;5101636;27;66098;-44
2023/06/10 07:31:27;;;;;;;10.70;2.58;;;;;;;30.71;49.74;100319.78;5108840;27;70158;-46
2023/06/10 07:33:59;;;;;;;2.97;2.63;;;;;;;30.71;52.93;100284.59;5105549;27;65827;-44
2023/06/10 07:36:30;;;;;;;4.07;2.58;;;;;;;31.02;54.71;100303.50;5105180;27;70557;-46
2023/06/10 07:39:02;;;;;;;3.72;3.35;;;;;;;31.20;55.82;100305.25;5102889;27;64822;-44
2023/06/10 07:41:33;;;;;;;4.65;3.13;;;;;;;31.31;56.51;100312.53;5110923;27;69967;-46
2023/06/10 07:44:05;;;;;;;6.50;4.35;;;;;;;31.39;57.23;100293.25;5109031;27;65592;-45
2023/06/10 07:46:36;;;;;;;6.00;3.53;;;;;;;31.50;57.70;100303.25;5108608;27;69294;-44
2023/06/10 07:49:08;;;;;;;6.45;4.25;;;;;;;31.61;58.60;100301.56;5104951;27;64799;-45
2023/06/10 07:51:39;;;;;;;5.63;4.00;;;;;;;31.47;59.03;100260.34;5106452;27;70330;-44
2023/06/10 07:54:12;;;;;;;4.75;4.20;;;;;;;31.74;59.37;100319.47;5105036;27;65971;-45
2023/06/10 07:56:46;;;;;;;5.00;4.05;;;;;;;31.88;59.85;100361.53;5111813;27;69632;-45
2023/06/10 07:59:18;;;;;;;4.13;3.42;;;;;;;31.92;60.21;100357.31;5108727;27;66741;-45
2023/06/10 08:01:49;;;;;;;6.15;3.85;;;;;;;31.81;61.07;100345.38;5101748;27;70272;-47
2023/06/10 08:04:21;;;;;;;5.35;4.05;;;;;;;31.81;61.13;100334.53;5108688;27;66156;-44
2023/06/10 08:06:53;;;;;;;5.53;4.50;;;;;;;31.95;65.21;100364.13;5101453;27;69528;-45
2023/06/10 08:09:25;;;;;;;8.43;4.60;;;;;;;31.89;65.67;100370.50;5107683;27;65702;-44
2023/06/10 08:11:57;;;;;;;6.80;4.40;;;;;;;31.90;65.80;100386.53;5103694;27;70695;-44
2023/06/10 08:14:28;;;;;;;7.40;4.80;;;;;;;31.81;66.31;100388.78;5107326;27;65868;-44
2023/06/10 08:17:00;;;;;;;6.77;4.13;;;;;;;30.95;66.53;100257.56;5101486;27;69257;-44
2023/06/10 08:19:32;;;;;;;8.25;5.00;;;;;;;31.86;67.06;100389.97;5106172;27;65290;-44
2023/06/10 08:22:03;;;;;;;5.28;4.35;;;;;;;31.77;67.63;100398.47;5104884;27;69985;-45
2023/06/10 08:24:36;;;;;;;11.10;4.78;;;;;;;31.79;67.97;100395.53;5106826;27;66584;-43
2023/06/10 08:27:07;;;;;;;8.55;4.78;;;;;;;31.77;68.88;100389.50;5111319;27;69517;-44
2023/06/10 08:29:40;;;;;;;4.88;4.07;;;;;;;31.82;69.27;100389.63;5113609;27;65910;-45
2023/06/10 08:32:11;;;;;;;5.00;4.43;;;;;;;31.76;69.27;100363.44;5109537;27;69986;-44
2023/06/10 08:34:43;;;;;;;4.38;3.92;;;;;;;31.74;69.97;100352.84;5108818;27;65234;-45
2023/06/10 08:37:14;;;;;;;5.22;3.90;;;;;;;31.81;70.05;100360.84;5105573;27;70200;-44
2023/06/10 08:39:45;;;;;;;;;;;;;;;31.60;70.83;100354.97;5102771;27;66387;-43
2023/06/10 08:42:28;;;;;;;5.93;4.03;;;;;;;31.70;70.58;100362.50;5101104;27;70278;-46
2023/06/10 08:45:01;;;;;;;4.65;3.72;;;;;;;30.89;70.59;100244.97;5099522;27;65803;-44
2023/06/10 08:47:40;;;;;;;9.93;3.22;;;;;;;31.03;70.68;100262.63;5098882;27;70287;-44
2023/06/10 08:50:12;;;;;;;4.38;3.20;;;;;;;31.80;71.03;100380.88;5101861;27;66164;-43
2023/06/10 08:52:44;;;;;;;4.43;4.03;;;;;;;31.78;71.11;100383.81;5110674;27;70387;-44
2023/06/10 08:55:25;;;;;;;6.80;3.83;;;;;;;31.77;70.99;100378.66;5103544;27;66410;-44
2023/06/10 08:58:01;;;;;;;6.50;3.60;;;;;;;31.76;71.58;100387.84;5115952;27;70416;-44
2023/06/10 09:00:34;;;;;;;7.93;3.60;;;;;;;31.71;71.30;100366.06;5111068;27;66647;-45
2023/06/10 09:03:08;;;;;;;5.18;3.80;;;;;;;31.77;72.03;100371.34;5118699;27;71052;-45
2023/06/10 09:05:40;;;;;;;4.35;3.47;;;;;;;31.85;69.73;100372.06;5120385;27;65492;-46
2023/06/10 09:08:11;;;;;;;3.17;2.75;;;;;;;31.90;69.26;100366.69;5121602;27;70289;-43
2023/06/10 09:10:43;;;;;;;3.28;3.00;;;;;;;31.66;69.00;100319.84;5119624;27;66081;-43
2023/06/10 09:13:18;;;;;;;3.55;2.97;;;;;;;31.92;68.73;100357.31;5104577;27;71605;-43
2023/06/10 09:15:51;;;;;;;6.47;2.85;;;;;;;31.99;68.77;100351.75;5105682;27;66687;-43
2023/06/10 09:18:22;;;;;;;9.55;3.03;;;;;;;32.02;68.35;100360.22;5109351;27;69956;-43
2023/06/10 09:20:54;;;;;;;3.00;2.78;;;;;;;32.03;68.25;100372.72;5120842;27;65805;-44
2023/06/10 09:23:27;;;;;;;3.47;3.03;;;;;;;32.00;68.19;100370.50;5110011;27;70391;-43
2023/06/10 09:25:59;;;;;;;3.38;2.58;;;;;;;32.07;67.73;100378.50;5109493;27;66578;-44
2023/06/10 09:28:31;;;;;;;3.90;2.92;;;;;;;32.08;67.89;100387.47;5109651;27;70304;-44
2023/06/10 09:31:05;;;;;;;2.72;2.53;;;;;;;31.93;67.80;100375.25;5117849;27;66556;-44
2023/06/10 09:33:40;;;;;;;2.55;2.35;;;;;;;32.04;67.80;100392.56;5105424;27;70309;-44
2023/06/10 09:36:12;;;;;;;3.97;3.25;;;;;;;32.08;67.32;100404.56;5104896;27;66683;-44
2023/06/10 09:38:43;;;;;;;5.28;3.30;;;;;;;32.01;67.38;100388.44;5118903;27;70693;-44
2023/06/10 09:41:15;;;;;;;3.42;3.22;;;;;;;32.02;67.41;100400.09;5108825;27;66431;-43
2023/06/10 09:43:48;;;;;;;4.72;3.42;;;;;;;32.09;67.51;100408.91;5111265;27;69195;-44
2023/06/10 09:46:20;;;;;;;3.78;3.40;;;;;;;32.11;67.43;100419.53;5111613;27;66065;-45
2023/06/10 09:48:52;;;;;;;4.35;3.95;;;;;;;32.10;67.32;100407.88;5105317;27;69993;-43
2023/06/10 09:51:23;;;;;;;4.10;3.70;;;;;;;32.08;67.18;100411.88;5111387;27;66287;-43
2023/06/10 09:53:55;;;;;;;4.70;4.25;;;;;;;32.11;67.46;100409.50;5104595;27;69495;-43
2023/06/10 09:56:36;;;;;;;;;;;;;;;31.81;69.12;100420.50;5102651;27;66623;-43
2023/06/10 09:59:07;;;;;;;4.63;4.20;;;;;;;32.06;67.59;100401.25;5110346;27;70341;-45
2023/06/10 10:01:38;;;;;;;6.32;4.10;;;;;;;32.08;67.71;100414.59;5112635;27;65367;-44
2023/06/10 10:04:10;;;;;;;6.68;3.75;;;;;;;32.01;68.26;100399.28;5109035;27;70130;-43
2023/06/10 10:06:41;;;;;;;5.90;5.30;;;;;;;31.93;69.94;100404.22;5110262;27;66767;-43
2023/06/10 10:09:13;;;;;;;6.15;5.40;;;;;;;31.95;70.27;100410.25;5111383;27;70412;-45
2023/06/10 10:11:47;;;;;;;12.38;5.28;;;;;;;31.67;70.52;100381.97;5093701;27;65282;-44
2023/06/10 10:14:20;;;;;;;8.05;4.85;;;;;;;31.48;70.69;100356.03;5109236;27;70394;-44
2023/06/10 10:16:54;;;;;;;6.95;4.30;;;;;;;31.73;70.85;100381.03;5111682;27;66433;-44
2023/06/10 10:19:31;;;;;;;5.43;4.93;;;;;;;31.89;71.33;100411.19;5113296;27;70018;-44
2023/06/10 10:22:11;;;;;;;10.85;4.80;;;;;;;31.90;71.04;100419.09;5113932;27;67030;-43
2023/06/10 10:24:52;;;;;;;13.07;5.15;;;;;;;31.15;70.88;100306.78;5104741;27;70389;-44
2023/06/10 10:27:36;;;;;;;6.05;5.30;;;;;;;31.81;71.05;100415.06;5105524;27;65235;-43
2023/06/10 10:30:11;;;;;;;8.95;4.03;;;;;;;31.13;70.19;100295.38;5109029;27;70224;-44
2023/06/10 10:32:59;;;;;;;5.60;3.42;;;;;;;31.15;69.88;100314.94;5106207;27;65915;-43
2023/06/10 10:35:33;;;;;;;3.85;3.55;;;;;;;31.92;69.00;100433.25;5104392;27;69797;-45
2023/06/10 10:38:06;;;;;;;3.15;2.95;;;;;;;31.76;68.74;100412.25;5104948;27;66739;-44
2023/06/10 10:40:38;;;;;;;3.80;3.50;;;;;;;31.71;68.56;100382.34;5109771;27;70032;-44
2023/06/10 10:43:11;;;;;;;5.13;3.53;;;;;;;32.02;68.51;100424.53;5110915;27;65949;-43
2023/06/10 10:45:42;;;;;;;4.70;3.47;;;;;;;31.99;67.95;100428.53;5112079;27;70041;-43
2023/06/10 10:48:15;;;;;;;4.18;3.60;;;;;;;31.22;67.79;100297.72;5103605;27;65255;-44
2023/06/10 10:51:00;;;;;;;4.40;3.40;;;;;;;32.02;68.30;100424.53;5111509;27;68610;-45
2023/06/10 10:53:31;;;;;;;3.63;3.25;;;;;;;32.08;67.71;100425.44;5109888;27;66479;-44
2023/06/10 10:56:07;;;;;;;5.30;4.43;;;;;;;32.09;67.82;100424.38;5110183;27;70096;-44
2023/06/10 10:58:41;;;;;;;6.13;4.18;;;;;;;31.77;67.84;100381.38;5102704;27;65981;-43
2023/06/10 11:01:17;;;;;;;4.30;4.00;;;;;;;31.98;67.80;100421.47;5104531;27;70407;-43
2023/06/10 11:03:49;;;;;;;6.93;4.25;;;;;;;31.99;67.89;100428.53;5105432;27;65746;-43
2023/06/10 11:06:21;;;;;;;5.50;4.32;;;;;;;32.10;68.14;100450.47;5113878;27;70138;-43
2023/06/10 11:08:52;;;;;;;7.97;4.50;;;;;;;31.64;68.57;100406.84;5109726;27;66304;-44
2023/06/10 11:11:27;;;;;;;4.25;3.92;;;;;;;31.45;68.42;100389.88;5104785;27;70122;-45
2023/06/10 11:14:08;;;;;;;4.07;3.78;;;;;;;30.98;67.95;100319.41;5105605;27;66632;-46
2023/06/10 11:16:41;;;;;;;3.67;3.38;;;;;;;30.85;68.07;100315.03;5100678;27;70789;-43
2023/06/10 11:19:34;;;;;;;6.25;4.63;;;;;;;31.51;70.35;100483.81;5105537;27;66365;-45
2023/06/10 11:22:09;;;;;;;6.88;4.63;;;;;;;31.46;70.31;100489.13;5099049;27;70658;-46
2023/06/10 11:24:41;;;;;;;6.97;5.32;;;;;;;31.32;71.23;100482.25;5106257;27;66444;-43
2023/06/10 11:27:22;;;;;;;5.75;5.10;;;;;;;31.19;71.78;100487.84;5108385;27;70245;-43
2023/06/10 11:30:03;;;;;;;7.72;6.30;;;;;;;31.12;71.73;100487.94;5109463;27;65330;-44
2023/06/10 11:32:35;;;;;;;8.15;5.57;;;;;;;31.14;71.99;100491.25;5109322;27;70319;-44
2023/06/10 11:35:08;;;;;;;5.60;5.07;;;;;;;29.57;72.16;100254.75;5111400;27;66382;-45
2023/06/10 11:37:40;;;;;;;5.53;4.90;;;;;;;31.04;72.44;100501.84;5111857;27;69585;-44
2023/06/10 11:40:13;;;;;;;5.72;5.22;;;;;;;30.17;72.67;100378.41;5108434;27;65428;-44
2023/06/10 11:42:45;;;;;;;5.35;4.95;;;;;;;30.76;73.06;100494.25;5105224;27;69593;-45
2023/06/10 11:45:17;;;;;;;12.50;5.18;;;;;;;30.91;72.81;100519.09;5105430;27;65429;-45
2023/06/10 11:47:59;;;;;;;7.22;5.70;;;;;;;30.83;73.05;100535.66;5103093;27;68709;-45
2023/06/10 11:50:33;;;;;;;6.45;5.95;;;;;;;30.92;73.25;100558.66;5108974;27;66199;-44
2023/06/10 11:53:04;;;;;;;6.68;5.47;;;;;;;30.90;73.48;100544.53;5109830;27;69969;-44
2023/06/10 11:55:47;;;;;;;14.32;7.10;;;;;;;30.02;73.56;100418.53;5111605;27;66255;-44